Time;durP1;ratioP1;P1;durP2;ratioP2;P2;SDS_P1;SDS_P2;PMS_P1;PMS_P2;Temp;Humidity;BMP_temperature;BMP_pressure;BME280_temperature;BME280_humidity;BME280_pressure;Samples;Min_cycle;Max_cycle;Signal;HPM_P1;HPM_P2
2021/12/25 00:00:06;;;;;;;6.45;3.58;;;;;;;4.50;60.27;95130.72;4990377;28;20026;-74
2021/12/25 00:02:33;;;;;;;6.10;3.42;;;;;;;4.67;59.72;95145.06;5006571;28;20022;-75
2021/12/25 00:04:59;;;;;;;6.70;3.38;;;;;;;4.77;59.68;95139.69;5007908;28;20088;-74
2021/12/25 00:07:24;;;;;;;7.43;3.20;;;;;;;4.91;60.02;95153.47;5005224;28;20025;-76
2021/12/25 00:09:50;;;;;;;10.88;5.45;;;;;;;5.03;57.92;95156.75;5006874;28;20038;-74
2021/12/25 00:12:15;;;;;;;20.20;12.18;;;;;;;4.99;56.63;95166.84;5007216;28;20022;-74
2021/12/25 00:14:40;;;;;;;23.10;12.80;;;;;;;4.73;57.39;95167.53;5005378;28;20022;-73
2021/12/25 00:17:06;;;;;;;21.30;13.02;;;;;;;4.50;57.49;95175.88;5006233;28;20026;-73
2021/12/25 00:19:31;;;;;;;23.95;14.02;;;;;;;4.29;58.11;95176.06;5006366;28;20029;-73
2021/12/25 00:21:57;;;;;;;24.02;14.05;;;;;;;4.16;59.26;95184.38;5008138;28;20060;-73
2021/12/25 00:24:23;;;;;;;25.45;12.70;;;;;;;4.03;59.46;95184.69;5006065;28;20022;-73
2021/12/25 00:30:10;;;;;;;19.35;11.10;;;;;;;3.89;60.57;95189.44;5006365;28;20034;-73
2021/12/25 00:34:46;;;;;;;33.13;16.30;;;;;;;3.57;60.64;95198.53;5007654;28;20112;-72
2021/12/25 00:37:12;;;;;;;29.98;17.67;;;;;;;3.47;60.68;95195.88;5004974;28;20060;-74
2021/12/25 00:39:37;;;;;;;37.17;19.45;;;;;;;3.36;61.60;95203.94;5006171;28;20105;-73
2021/12/25 00:42:03;;;;;;;37.22;20.40;;;;;;;3.26;61.53;95209.22;5003254;28;20022;-73
2021/12/25 00:44:29;;;;;;;37.75;20.63;;;;;;;3.24;61.76;95206.72;5005455;28;20040;-73
2021/12/25 00:46:57;;;;;;;38.53;22.40;;;;;;;3.25;61.99;95199.63;5004760;28;20057;-74
2021/12/25 00:49:23;;;;;;;37.28;22.02;;;;;;;2.90;62.96;95204.44;5004834;28;20161;-74
2021/12/25 00:51:48;;;;;;;41.20;22.15;;;;;;;2.97;62.50;95200.25;5005250;28;20034;-75
2021/12/25 00:54:15;;;;;;;44.65;23.98;;;;;;;2.90;63.06;95210.53;5019858;28;20463;-74
2021/12/25 00:56:41;;;;;;;43.30;23.38;;;;;;;2.86;62.69;95200.34;5007751;28;20053;-73
2021/12/25 00:59:06;;;;;;;43.63;22.73;;;;;;;2.88;62.79;95198.41;5023878;28;20044;-73
2021/12/25 01:01:31;;;;;;;44.67;24.83;;;;;;;2.88;62.89;95209.03;5007367;28;20533;-73
2021/12/25 01:03:57;;;;;;;42.33;24.08;;;;;;;2.75;62.97;95201.31;5006311;28;20503;-75
2021/12/25 01:06:22;;;;;;;46.90;26.08;;;;;;;2.76;63.02;95193.22;5024591;28;20407;-73
2021/12/25 01:08:48;;;;;;;49.03;27.83;;;;;;;2.70;63.09;95199.91;5024730;28;20056;-74
2021/12/25 01:11:13;;;;;;;51.05;28.50;;;;;;;2.70;62.89;95191.97;5023878;28;20397;-73
2021/12/25 01:13:45;;;;;;;55.33;29.80;;;;;;;2.72;62.93;95197.13;5025684;28;20464;-73
2021/12/25 01:21:51;;;;;;;39.20;24.48;;;;;;;2.75;63.08;95194.22;5008879;28;20077;-73
2021/12/25 01:29:51;;;;;;;40.30;21.38;;;;;;;2.79;63.23;95195.59;5025725;28;20033;-74
2021/12/25 01:48:37;;;;;;;38.40;21.23;;;;;;;2.82;62.98;95173.31;5003649;28;20558;-74
2021/12/25 01:51:02;;;;;;;35.13;19.33;;;;;;;2.87;63.48;95171.09;5025095;28;20032;-73
2021/12/25 01:53:28;;;;;;;38.25;18.92;;;;;;;2.93;63.00;95175.88;5025925;28;20050;-74
2021/12/25 01:55:54;;;;;;;32.47;18.10;;;;;;;2.94;62.83;95166.94;5025598;28;20028;-73
2021/12/25 01:58:20;;;;;;;37.47;18.30;;;;;;;3.01;62.85;95172.53;5025466;28;20025;-74
2021/12/25 02:00:48;;;;;;;51.03;23.02;;;;;;;3.08;62.61;95170.16;5008569;28;20026;-74
2021/12/25 02:03:14;;;;;;;46.35;23.65;;;;;;;3.08;62.50;95171.00;5007359;28;20117;-74
2021/12/25 02:05:40;;;;;;;46.38;23.52;;;;;;;3.05;62.46;95159.81;5026322;28;20043;-73
2021/12/25 02:08:05;;;;;;;44.83;21.83;;;;;;;3.00;62.86;95160.25;4990740;28;20030;-74
2021/12/25 02:10:31;;;;;;;43.88;21.63;;;;;;;2.94;63.31;95168.72;5008481;28;20025;-74
2021/12/25 02:12:56;;;;;;;44.92;22.13;;;;;;;2.88;63.45;95166.63;5007726;28;20033;-74
2021/12/25 02:15:24;;;;;;;45.50;21.73;;;;;;;2.87;63.05;95165.78;5025687;28;20021;-73
2021/12/25 02:20:28;;;;;;;45.65;22.33;;;;;;;2.77;63.74;95171.09;5025299;28;20040;-73
2021/12/25 02:23:00;;;;;;;48.30;24.27;;;;;;;2.79;63.69;95171.75;5026867;28;20045;-74
2021/12/25 02:25:26;;;;;;;44.67;22.98;;;;;;;2.81;63.49;95164.53;5007788;28;20478;-74
2021/12/25 02:27:51;;;;;;;39.58;21.52;;;;;;;2.78;63.31;95162.16;5025946;28;20017;-73
2021/12/25 02:30:17;;;;;;;34.78;19.75;;;;;;;2.71;63.10;95158.34;5026526;28;20040;-73
2021/12/25 02:32:45;;;;;;;35.92;19.63;;;;;;;2.70;63.20;95151.41;5029454;28;20032;-73
2021/12/25 02:35:12;;;;;;;39.08;19.85;;;;;;;2.56;64.16;95163.19;5011526;28;20036;-74
2021/12/25 02:37:39;;;;;;;34.42;20.08;;;;;;;2.52;64.05;95162.63;5011116;28;20498;-74
2021/12/25 02:40:06;;;;;;;35.97;20.48;;;;;;;2.57;64.24;95157.78;5029791;28;20567;-73
2021/12/25 02:42:34;;;;;;;37.50;20.48;;;;;;;2.63;64.72;95150.28;5010470;28;20037;-74
2021/12/25 02:45:00;;;;;;;36.67;19.48;;;;;;;2.66;64.08;95150.00;5029504;28;20034;-74
2021/12/25 02:47:25;;;;;;;43.58;20.00;;;;;;;2.52;64.46;95157.34;5028435;28;20029;-74
2021/12/25 02:49:51;;;;;;;36.95;19.48;;;;;;;2.51;64.69;95147.72;5029118;28;20029;-74
2021/12/25 02:52:16;;;;;;;35.28;20.67;;;;;;;2.61;64.44;95153.06;5028135;28;20029;-73
2021/12/25 02:54:43;;;;;;;39.15;20.00;;;;;;;2.65;64.71;95138.56;5028262;28;20053;-74
2021/12/25 02:57:09;;;;;;;54.97;28.90;;;;;;;2.76;64.47;95150.84;5011520;28;20076;-73
2021/12/25 02:59:34;;;;;;;53.80;29.42;;;;;;;2.72;64.60;95150.28;5027619;28;20022;-73
2021/12/25 03:02:13;;;;;;;54.42;30.73;;;;;;;2.68;64.48;95148.03;5011599;28;20021;-74
2021/12/25 03:04:47;;;;;;;56.33;30.80;;;;;;;2.80;64.21;95152.28;5028061;28;20404;-74
2021/12/25 03:07:13;;;;;;;47.65;26.70;;;;;;;2.73;64.12;95151.13;5011137;28;20091;-73
2021/12/25 03:09:39;;;;;;;49.58;26.13;;;;;;;2.74;64.59;95159.91;5028304;28;20029;-74
2021/12/25 03:12:07;;;;;;;47.10;26.33;;;;;;;2.66;64.66;95156.13;5010710;28;20485;-74
2021/12/25 03:14:39;;;;;;;42.58;23.70;;;;;;;2.65;64.62;95153.59;5028871;28;20057;-74
2021/12/25 03:17:04;;;;;;;41.08;22.15;;;;;;;2.52;64.95;95151.19;5010466;28;20032;-74
2021/12/25 03:19:34;;;;;;;36.25;21.20;;;;;;;2.52;65.16;95159.97;5028743;28;20034;-72
2021/12/25 03:22:00;;;;;;;38.58;22.35;;;;;;;2.56;65.12;95176.44;5027964;28;20112;-72
2021/12/25 03:24:26;;;;;;;35.40;22.15;;;;;;;2.49;65.48;95160.25;5010508;28;20459;-73
2021/12/25 03:26:54;;;;;;;36.28;21.23;;;;;;;2.52;64.96;95156.47;5010483;28;20037;-73
2021/12/25 03:29:20;;;;;;;39.38;20.90;;;;;;;2.59;64.78;95153.19;5010758;28;20057;-72
2021/12/25 03:31:46;;;;;;;42.50;22.73;;;;;;;2.75;64.69;95157.13;5028587;28;20033;-73
2021/12/25 03:34:11;;;;;;;40.78;22.90;;;;;;;2.74;64.67;95150.13;5027396;28;20025;-74
2021/12/25 03:36:36;;;;;;;41.00;23.52;;;;;;;2.79;64.20;95149.75;5010816;28;20045;-74
2021/12/25 03:39:02;;;;;;;48.22;25.42;;;;;;;2.80;64.28;95148.78;5027469;28;20033;-73
2021/12/25 03:41:28;;;;;;;46.92;22.92;;;;;;;2.80;64.29;95149.63;5025743;28;20026;-73
2021/12/25 03:43:53;;;;;;;40.15;22.38;;;;;;;2.71;64.90;95148.59;5027992;28;20022;-73
2021/12/25 03:46:19;;;;;;;44.13;23.02;;;;;;;2.76;64.75;95153.50;5027920;28;20037;-73
2021/12/25 03:59:38;;;;;;;39.38;21.33;;;;;;;2.64;64.88;95160.72;5027159;28;20539;-74
2021/12/25 04:02:10;;;;;;;38.20;21.08;;;;;;;2.72;65.30;95154.75;5010428;28;20025;-74
2021/12/25 04:04:38;;;;;;;34.38;19.65;;;;;;;2.72;65.48;95162.69;4994379;28;20021;-73
2021/12/25 04:07:15;;;;;;;38.65;21.08;;;;;;;2.71;65.42;95150.41;5027850;28;20025;-73
2021/12/25 04:09:41;;;;;;;42.50;21.85;;;;;;;2.77;65.46;95163.13;5026881;28;20151;-73
2021/12/25 04:12:08;;;;;;;43.40;23.13;;;;;;;2.75;65.48;95150.97;5027540;28;20029;-73
2021/12/25 04:14:34;;;;;;;45.30;24.63;;;;;;;2.79;65.48;95155.88;5027405;28;20439;-74
2021/12/25 04:17:00;;;;;;;40.92;24.23;;;;;;;2.84;65.10;95158.13;4992733;28;20092;-73
2021/12/25 04:19:25;;;;;;;42.85;24.20;;;;;;;2.87;65.04;95149.06;4993920;28;20025;-74
2021/12/25 04:21:58;;;;;;;41.83;23.60;;;;;;;2.88;64.70;95164.00;5026387;28;20109;-75
2021/12/25 04:24:25;;;;;;;40.25;22.23;;;;;;;2.91;65.21;95161.91;5011120;28;20385;-75
2021/12/25 04:26:51;;;;;;;38.22;21.70;;;;;;;2.87;65.04;95171.09;5027227;28;20056;-74
2021/12/25 04:42:57;;;;;;;27.77;16.77;;;;;;;2.88;65.97;95171.94;5027358;28;20551;-73
2021/12/25 05:02:07;;;;;;;31.23;18.40;;;;;;;2.70;65.63;95194.63;5006657;28;20127;-73
2021/12/25 05:04:36;;;;;;;31.70;18.25;;;;;;;2.57;66.12;95180.75;5021752;28;20045;-73
2021/12/25 05:07:02;;;;;;;34.88;18.60;;;;;;;2.62;66.37;95193.59;5010824;28;20055;-76
2021/12/25 05:09:27;;;;;;;30.60;17.13;;;;;;;2.51;66.64;95184.78;5012960;28;20029;-75
2021/12/25 05:11:53;;;;;;;27.40;15.27;;;;;;;2.59;66.75;95195.56;5025583;28;20026;-74
2021/12/25 05:14:18;;;;;;;22.20;13.98;;;;;;;2.70;66.47;95196.41;5024964;28;20029;-74
2021/12/25 05:16:44;;;;;;;24.17;14.63;;;;;;;2.78;66.04;95193.94;5026919;28;20334;-73
2021/12/25 05:19:09;;;;;;;26.58;15.02;;;;;;;2.87;65.93;95202.06;5007155;28;20558;-73
2021/12/25 05:21:35;;;;;;;26.23;15.15;;;;;;;2.84;66.03;95206.63;5016221;28;20398;-74
2021/12/25 05:24:01;;;;;;;25.67;14.93;;;;;;;2.92;65.59;95213.06;5026915;28;20296;-75
2021/12/25 05:26:26;;;;;;;31.58;16.92;;;;;;;2.95;65.58;95211.00;5025929;28;20029;-75
2021/12/25 05:29:00;;;;;;;33.47;18.50;;;;;;;2.94;65.35;95206.69;5024768;28;20025;-73
2021/12/25 05:31:27;;;;;;;31.52;17.63;;;;;;;2.94;65.53;95200.53;4993493;28;20022;-74
2021/12/25 05:33:52;;;;;;;30.27;16.60;;;;;;;3.01;65.59;95199.03;5025282;28;20021;-73
2021/12/25 05:36:17;;;;;;;35.95;20.45;;;;;;;3.01;64.77;95203.47;5024848;28;20032;-74
2021/12/25 05:38:43;;;;;;;30.52;18.38;;;;;;;2.97;65.29;95211.69;5005757;28;20030;-74
2021/12/25 05:41:11;;;;;;;29.95;17.45;;;;;;;2.98;65.92;95209.91;5025175;28;20022;-75
2021/12/25 05:43:36;;;;;;;29.40;17.27;;;;;;;2.99;65.52;95208.06;5025897;28;20036;-73
2021/12/25 05:46:02;;;;;;;30.23;17.70;;;;;;;2.83;65.73;95215.56;5026494;28;20030;-75
2021/12/25 05:48:27;;;;;;;32.22;17.48;;;;;;;2.85;66.29;95228.69;5012225;28;20032;-74
2021/12/25 05:50:54;;;;;;;27.60;15.65;;;;;;;2.91;65.88;95232.59;5021595;28;20033;-72
2021/12/25 05:53:19;;;;;;;25.40;15.70;;;;;;;3.03;65.45;95234.16;5025201;28;20471;-73
2021/12/25 05:55:45;;;;;;;25.63;15.18;;;;;;;3.14;65.51;95245.63;5008239;28;20028;-74
2021/12/25 05:58:10;;;;;;;24.48;14.10;;;;;;;3.28;64.91;95239.94;5015358;28;20026;-75
2021/12/25 06:00:36;;;;;;;27.40;14.65;;;;;;;3.34;64.47;95238.56;5005964;28;20104;-73
2021/12/25 06:03:03;;;;;;;22.17;14.85;;;;;;;3.31;64.79;95228.22;4989002;28;20029;-73
2021/12/25 06:05:28;;;;;;;27.52;14.35;;;;;;;3.28;64.94;95231.16;5007491;28;20041;-74
2021/12/25 06:07:54;;;;;;;24.83;14.93;;;;;;;3.31;64.78;95228.22;5009330;28;20034;-73
2021/12/25 06:10:19;;;;;;;25.90;14.75;;;;;;;3.38;64.44;95228.53;5009012;28;20041;-73
2021/12/25 06:12:47;;;;;;;22.25;13.65;;;;;;;3.38;64.11;95217.91;5008731;28;20030;-72
2021/12/25 06:15:13;;;;;;;25.02;15.43;;;;;;;3.46;64.08;95226.03;5008475;28;20405;-73
2021/12/25 06:17:39;;;;;;;24.05;14.40;;;;;;;3.58;63.73;95229.38;5008526;28;20042;-74
2021/12/25 06:20:05;;;;;;;28.20;15.93;;;;;;;3.62;63.29;95235.25;5008153;28;20062;-74
2021/12/25 06:22:31;;;;;;;27.52;17.85;;;;;;;3.58;63.22;95240.81;5009297;28;20101;-74
2021/12/25 06:24:56;;;;;;;29.98;16.05;;;;;;;3.66;63.71;95247.25;5009618;28;20117;-74
2021/12/25 06:27:22;;;;;;;29.35;18.13;;;;;;;3.63;63.20;95228.97;5005623;28;20477;-73
2021/12/25 06:29:47;;;;;;;26.55;16.88;;;;;;;3.61;63.50;95230.94;5011522;28;20033;-74
2021/12/25 06:32:13;;;;;;;28.63;17.42;;;;;;;3.58;63.70;95235.53;5028649;28;20414;-75
2021/12/25 06:34:38;;;;;;;31.83;18.10;;;;;;;3.63;63.59;95240.41;5029511;28;20997;-74
2021/12/25 06:37:04;;;;;;;31.20;17.90;;;;;;;3.65;63.55;95254.38;5029291;28;20021;-73
2021/12/25 06:39:30;;;;;;;37.28;19.50;;;;;;;3.67;63.23;95251.59;5026594;28;20053;-73
2021/12/25 06:41:56;;;;;;;34.15;18.88;;;;;;;3.68;63.78;95266.50;5012176;28;20035;-73
2021/12/25 06:44:24;;;;;;;33.00;19.27;;;;;;;3.67;63.94;95270.16;5028501;28;20025;-73
2021/12/25 06:46:50;;;;;;;34.28;19.90;;;;;;;3.73;63.59;95256.31;4996087;28;20104;-73
2021/12/25 06:49:16;;;;;;;39.15;21.58;;;;;;;3.81;63.57;95250.31;5025579;28;20033;-73
2021/12/25 06:51:41;;;;;;;45.92;22.73;;;;;;;3.87;63.30;95254.25;5029929;28;20034;-73
2021/12/25 06:54:07;;;;;;;36.80;20.90;;;;;;;3.92;62.65;95258.16;5028059;28;20037;-73
2021/12/25 06:56:32;;;;;;;39.38;21.02;;;;;;;3.94;62.60;95258.84;5029116;28;20032;-73
2021/12/25 06:58:58;;;;;;;35.88;21.58;;;;;;;4.02;62.60;95268.75;5026619;28;20033;-74
2021/12/25 07:01:23;;;;;;;38.13;21.58;;;;;;;4.03;62.80;95261.66;5029084;28;20034;-74
2021/12/25 07:03:49;;;;;;;35.33;20.63;;;;;;;4.02;62.86;95268.75;5029210;28;20017;-74
2021/12/25 07:06:15;;;;;;;36.13;20.50;;;;;;;4.07;62.80;95281.63;5028120;28;20130;-73
2021/12/25 07:08:40;;;;;;;38.20;20.60;;;;;;;4.02;62.86;95287.34;5008772;28;20492;-76
2021/12/25 07:11:05;;;;;;;38.75;21.48;;;;;;;4.03;62.55;95290.84;5010656;28;20018;-75
2021/12/25 07:13:31;;;;;;;35.00;20.98;;;;;;;4.02;62.57;95284.69;5028536;28;20409;-75
2021/12/25 07:15:56;;;;;;;33.20;17.65;;;;;;;4.17;62.10;95271.84;5027791;28;20029;-74
2021/12/25 07:18:22;;;;;;;31.80;18.02;;;;;;;4.02;62.35;95266.09;5025507;28;20378;-74
2021/12/25 07:20:48;;;;;;;30.77;18.13;;;;;;;3.95;62.66;95267.63;5011148;28;20083;-75
2021/12/25 07:23:15;;;;;;;32.55;17.63;;;;;;;3.91;63.29;95266.25;5028115;28;20029;-75
2021/12/25 07:25:40;;;;;;;28.63;17.90;;;;;;;3.94;63.17;95271.28;5029281;28;20029;-75
2021/12/25 07:28:06;;;;;;;28.95;18.20;;;;;;;3.92;62.79;95273.22;5027605;28;20099;-73
2021/12/25 07:30:32;;;;;;;33.38;18.65;;;;;;;3.98;63.12;95288.63;5028597;28;20025;-73
2021/12/25 07:32:57;;;;;;;27.17;17.90;;;;;;;3.99;62.97;95271.69;5010136;28;20021;-74
2021/12/25 07:35:23;;;;;;;31.92;18.30;;;;;;;4.08;62.63;95284.13;5028304;28;20113;-73
2021/12/25 07:37:48;;;;;;;31.63;18.35;;;;;;;4.06;62.95;95294.03;4989875;28;21490;-75
2021/12/25 07:40:14;;;;;;;35.45;21.23;;;;;;;4.08;63.00;95288.59;5027608;28;20029;-73
2021/12/25 07:42:39;;;;;;;34.22;20.05;;;;;;;3.98;62.79;95293.06;5022315;28;20037;-76
2021/12/25 07:45:06;;;;;;;32.63;21.00;;;;;;;3.94;63.13;95296.00;5008293;28;20041;-74
2021/12/25 07:47:35;;;;;;;36.47;21.83;;;;;;;3.90;63.07;95293.78;5009655;28;20026;-75
2021/12/25 07:50:03;;;;;;;36.08;20.73;;;;;;;3.87;63.77;95291.41;5009358;28;20032;-76
2021/12/25 07:52:28;;;;;;;36.72;20.73;;;;;;;3.94;63.07;95290.69;5008096;28;20025;-74
2021/12/25 07:54:54;;;;;;;37.75;22.35;;;;;;;3.98;63.15;95291.25;5009551;28;20125;-78
2021/12/25 07:57:19;;;;;;;38.53;22.08;;;;;;;4.14;63.03;95290.72;4994145;28;20029;-73
2021/12/25 07:59:45;;;;;;;38.42;20.27;;;;;;;4.27;62.80;95293.03;5009807;28;20096;-75
2021/12/25 08:02:10;;;;;;;32.40;20.92;;;;;;;4.38;62.26;95294.72;5021321;28;20068;-75
2021/12/25 08:04:36;;;;;;;38.25;22.45;;;;;;;4.68;61.56;95292.84;5012247;28;20036;-74
2021/12/25 08:07:01;;;;;;;35.88;21.85;;;;;;;5.04;60.59;95296.66;5026309;28;20091;-76
2021/12/25 08:09:31;;;;;;;40.55;22.55;;;;;;;5.30;60.13;95294.16;5019998;28;20089;-75
2021/12/25 08:11:57;;;;;;;41.08;24.05;;;;;;;5.41;59.36;95289.63;5026977;28;20029;-75
2021/12/25 08:14:25;;;;;;;41.38;23.52;;;;;;;5.72;59.30;95289.31;5025420;28;20022;-73
2021/12/25 08:17:00;;;;;;;62.83;36.67;;;;;;;5.99;58.09;95282.25;5026634;28;20114;-75
2021/12/25 08:19:26;;;;;;;69.80;41.10;;;;;;;6.22;57.86;95291.63;5020898;28;20086;-75
2021/12/25 08:21:51;;;;;;;57.30;36.33;;;;;;;6.26;58.03;95287.66;5010143;28;20021;-74
2021/12/25 08:24:17;;;;;;;54.00;32.80;;;;;;;6.44;57.07;95284.97;5017761;28;20029;-73
2021/12/25 08:26:43;;;;;;;47.75;28.48;;;;;;;6.35;57.11;95285.91;5006183;28;20033;-74
2021/12/25 08:29:09;;;;;;;42.45;27.52;;;;;;;6.50;56.72;95292.34;5020928;28;20416;-74
2021/12/25 08:31:34;;;;;;;45.47;29.02;;;;;;;6.60;56.41;95288.75;5026942;28;20026;-73
2021/12/25 08:34:00;;;;;;;47.38;28.95;;;;;;;6.64;56.61;95292.78;5014116;28;20053;-74
2021/12/25 08:36:25;;;;;;;55.38;30.58;;;;;;;6.85;55.95;95292.41;5008830;28;20025;-74
2021/12/25 08:38:50;;;;;;;57.25;32.95;;;;;;;6.98;55.64;95291.97;5020123;28;20108;-75
2021/12/25 08:41:16;;;;;;;47.70;30.58;;;;;;;7.22;54.95;95297.63;5025831;28;20022;-75
2021/12/25 08:43:47;;;;;;;41.78;26.25;;;;;;;7.31;54.65;95286.00;5024592;28;20512;-74
2021/12/25 08:46:18;;;;;;;43.05;25.27;;;;;;;7.53;54.54;95284.56;5025226;28;20029;-74
2021/12/25 08:48:43;;;;;;;38.58;22.13;;;;;;;7.51;53.56;95277.72;5022163;28;20076;-74
2021/12/25 08:51:09;;;;;;;37.25;21.00;;;;;;;7.42;54.20;95271.50;4998269;28;20053;-75
2021/12/25 08:53:34;;;;;;;36.83;21.20;;;;;;;7.67;53.59;95279.63;5024575;28;20139;-75
2021/12/25 08:56:00;;;;;;;40.15;23.75;;;;;;;7.88;53.14;95278.31;5009563;28;20029;-74
2021/12/25 08:58:26;;;;;;;52.03;26.38;;;;;;;8.14;53.00;95256.00;5026088;28;20022;-74
2021/12/25 09:00:56;;;;;;;35.78;20.60;;;;;;;8.31;52.20;95258.66;5009499;28;20017;-75
2021/12/25 09:03:25;;;;;;;31.27;18.25;;;;;;;8.31;52.34;95253.31;5024486;28;20535;-73
2021/12/25 09:05:51;;;;;;;27.33;15.23;;;;;;;8.30;52.28;95247.16;5009568;28;20025;-74
2021/12/25 09:08:17;;;;;;;29.15;15.55;;;;;;;8.26;52.43;95248.47;5026690;28;20040;-75
2021/12/25 09:10:42;;;;;;;21.42;12.55;;;;;;;8.23;52.46;95243.47;5026867;28;20404;-73
2021/12/25 09:13:41;;;;;;;18.35;10.48;;;;;;;8.35;52.42;95242.13;5024209;28;20030;-74
2021/12/25 09:16:07;;;;;;;15.45;9.50;;;;;;;8.49;51.55;95240.63;5019058;28;20033;-74
2021/12/25 09:18:32;;;;;;;16.15;9.68;;;;;;;8.60;51.78;95241.28;5014493;28;20028;-76
2021/12/25 09:20:58;;;;;;;14.85;9.10;;;;;;;8.60;51.68;95233.28;5026259;28;20032;-76
2021/12/25 09:23:24;;;;;;;12.20;7.55;;;;;;;8.63;51.34;95225.75;5024745;28;20075;-74
2021/12/25 09:25:49;;;;;;;14.73;8.73;;;;;;;8.80;51.52;95230.22;5026096;28;20045;-75
2021/12/25 09:28:15;;;;;;;14.68;7.68;;;;;;;8.83;51.70;95220.03;5024840;28;20033;-73
2021/12/25 09:30:42;;;;;;;13.82;8.65;;;;;;;9.01;51.11;95218.97;5008365;28;20040;-76
2021/12/25 09:33:07;;;;;;;13.38;8.18;;;;;;;9.00;50.82;95223.50;5020998;28;20045;-75
2021/12/25 09:35:33;;;;;;;11.52;7.72;;;;;;;9.06;50.12;95218.47;5026302;28;20072;-75
2021/12/25 09:37:58;;;;;;;12.52;7.93;;;;;;;9.15;50.04;95214.75;5024150;28;20504;-74
2021/12/25 09:40:24;;;;;;;17.42;9.48;;;;;;;9.24;50.00;95216.38;5025482;28;20500;-75
2021/12/25 09:42:50;;;;;;;15.20;9.63;;;;;;;9.27;49.93;95208.00;5018449;28;20526;-75
2021/12/25 09:45:15;;;;;;;17.90;10.95;;;;;;;9.40;49.73;95209.25;5026025;28;20025;-74
2021/12/25 09:47:41;;;;;;;15.38;9.65;;;;;;;9.49;49.28;95204.72;5025573;28;20028;-75
2021/12/25 09:50:07;;;;;;;13.68;8.18;;;;;;;9.79;48.52;95196.81;5023005;28;20411;-75
2021/12/25 09:52:33;;;;;;;13.80;7.35;;;;;;;9.83;48.78;95181.25;5009197;28;20654;-74
2021/12/25 09:54:58;;;;;;;8.93;4.75;;;;;;;9.94;48.38;95188.03;5000421;28;20133;-74
2021/12/25 09:57:24;;;;;;;10.07;4.65;;;;;;;10.05;47.76;95186.75;5006142;28;20120;-76
2021/12/25 09:59:51;;;;;;;9.07;4.72;;;;;;;10.14;48.36;95183.84;5010742;28;20057;-77
2021/12/25 10:02:17;;;;;;;7.50;4.57;;;;;;;10.17;48.56;95177.31;5005815;28;20038;-75
2021/12/25 10:04:46;;;;;;;6.90;4.07;;;;;;;10.30;48.02;95175.84;5006127;28;20066;-77
2021/12/25 10:07:29;;;;;;;5.97;3.08;;;;;;;10.36;48.02;95167.91;5004434;28;20116;-74
2021/12/25 10:10:10;;;;;;;6.65;3.58;;;;;;;10.38;47.49;95168.53;5007060;28;20041;-75
2021/12/25 10:12:43;;;;;;;6.70;3.15;;;;;;;10.48;47.62;95168.31;5005467;28;20046;-76
2021/12/25 10:15:12;;;;;;;5.95;3.38;;;;;;;10.45;47.37;95165.97;5006501;28;20030;-76
2021/12/25 10:17:47;;;;;;;6.47;3.15;;;;;;;10.50;47.54;95160.94;5005730;28;20030;-76
2021/12/25 10:20:18;;;;;;;7.78;2.97;;;;;;;10.47;47.30;95152.41;5006096;28;20046;-74
2021/12/25 10:22:58;;;;;;;5.50;3.45;;;;;;;10.43;47.61;95148.41;5005238;28;20030;-78
2021/12/25 10:25:24;;;;;;;7.32;3.58;;;;;;;10.38;47.70;95140.91;5004924;28;20467;-76
2021/12/25 10:27:53;;;;;;;10.98;3.53;;;;;;;10.33;47.37;95146.84;5006417;28;20508;-75
2021/12/25 10:30:18;;;;;;;11.48;3.72;;;;;;;10.29;47.44;95142.00;5005368;28;20444;-74
2021/12/25 10:32:44;;;;;;;7.47;3.42;;;;;;;10.30;47.72;95132.94;5006148;28;20544;-74
2021/12/25 10:35:27;;;;;;;8.40;3.95;;;;;;;10.33;47.77;95143.31;5005777;28;20033;-74
2021/12/25 10:37:54;;;;;;;4.57;2.83;;;;;;;10.38;47.56;95146.28;5005238;28;20026;-76
2021/12/25 10:40:26;;;;;;;11.52;4.55;;;;;;;10.42;47.55;95144.03;5006398;28;20022;-75
2021/12/25 10:42:56;;;;;;;22.77;15.93;;;;;;;10.43;48.07;95138.50;4987908;28;20026;-75
2021/12/25 10:45:23;;;;;;;33.60;18.10;;;;;;;10.44;47.79;95144.69;5004552;28;20034;-76
2021/12/25 10:48:05;;;;;;;35.28;19.25;;;;;;;10.43;47.45;95149.22;5005609;28;20076;-76
2021/12/25 10:50:49;;;;;;;31.15;18.90;;;;;;;10.12;47.79;95131.44;5004397;28;20053;-76
2021/12/25 10:53:42;;;;;;;29.42;20.70;;;;;;;9.84;48.94;95122.13;5010170;28;20046;-74
2021/12/25 10:56:13;;;;;;;31.88;19.92;;;;;;;9.98;49.60;95123.19;5005831;28;20045;-75
2021/12/25 10:58:39;;;;;;;28.80;19.20;;;;;;;10.09;48.82;95121.09;5007811;28;20124;-74
2021/12/25 11:01:06;;;;;;;29.50;20.38;;;;;;;10.21;49.23;95125.00;5009065;28;20034;-74
2021/12/25 11:03:35;;;;;;;34.40;20.10;;;;;;;10.02;49.04;95116.47;5008685;28;20058;-75
2021/12/25 11:06:03;;;;;;;32.92;20.25;;;;;;;10.08;49.06;95117.56;5009687;28;20033;-74
2021/12/25 11:08:29;;;;;;;31.58;19.58;;;;;;;10.14;48.59;95108.81;4990546;28;20037;-76
2021/12/25 11:11:21;;;;;;;31.52;20.08;;;;;;;10.29;48.22;95099.09;5010448;28;20021;-77
2021/12/25 11:13:51;;;;;;;43.30;22.55;;;;;;;10.35;48.48;95099.22;5006510;28;20037;-75
2021/12/25 11:16:27;;;;;;;35.30;21.98;;;;;;;10.31;48.53;95099.75;5010001;28;20030;-76
2021/12/25 11:19:08;;;;;;;35.95;21.05;;;;;;;10.08;48.93;95095.28;5008524;28;20448;-76
2021/12/25 11:21:56;;;;;;;34.38;19.80;;;;;;;10.23;48.30;95096.16;4990549;28;20065;-75
2021/12/25 11:24:22;;;;;;;31.95;20.73;;;;;;;10.26;48.67;95090.44;5009484;28;20025;-74
2021/12/25 11:26:50;;;;;;;37.80;21.60;;;;;;;10.32;48.39;95085.34;5008064;28;20033;-75
2021/12/25 11:29:18;;;;;;;42.75;21.95;;;;;;;10.37;48.86;95085.63;4991073;28;20110;-76
2021/12/25 11:31:44;;;;;;;29.85;19.05;;;;;;;10.45;48.26;95077.50;5008598;28;20387;-75
2021/12/25 11:34:10;;;;;;;31.38;21.27;;;;;;;10.63;47.64;95073.63;5007838;28;20029;-75
2021/12/25 11:36:39;;;;;;;34.97;21.35;;;;;;;10.66;47.21;95067.06;4991263;28;20025;-74
2021/12/25 11:39:05;;;;;;;31.73;20.33;;;;;;;10.71;47.59;95070.84;5007717;28;20397;-76
2021/12/25 11:41:32;;;;;;;29.25;20.10;;;;;;;10.78;46.83;95067.41;5008530;28;20888;-76
2021/12/25 11:43:58;;;;;;;34.65;20.25;;;;;;;10.79;47.23;95067.22;4990544;28;20113;-74
2021/12/25 11:46:36;;;;;;;31.80;20.40;;;;;;;10.88;47.30;95062.59;5008225;28;20508;-74
2021/12/25 11:49:10;;;;;;;30.33;18.42;;;;;;;10.94;46.34;95055.66;5008537;28;20493;-75
2021/12/25 11:51:35;;;;;;;32.50;19.75;;;;;;;10.99;46.48;95062.09;5007167;28;20477;-75
2021/12/25 11:56:44;;;;;;;31.33;17.63;;;;;;;11.07;46.04;95054.97;4990056;28;20052;-74
2021/12/25 11:59:11;;;;;;;26.60;17.17;;;;;;;11.13;45.72;95054.19;5008282;28;20033;-75
2021/12/25 12:01:45;;;;;;;24.60;15.73;;;;;;;11.19;46.28;95050.75;5006386;28;20061;-76
2021/12/25 12:04:10;;;;;;;23.77;15.98;;;;;;;11.24;45.70;95042.97;5005582;28;20456;-75
2021/12/25 12:06:47;;;;;;;26.75;16.17;;;;;;;11.36;45.25;95045.16;5008635;28;20554;-76
2021/12/25 12:09:19;;;;;;;26.30;16.55;;;;;;;11.41;44.94;95048.09;5006954;28;20105;-75
2021/12/25 12:12:07;;;;;;;26.00;16.08;;;;;;;11.38;45.48;95049.28;4990314;28;20068;-75
2021/12/25 12:14:33;;;;;;;24.95;16.85;;;;;;;11.49;45.47;95047.94;4990525;28;20398;-75
2021/12/25 12:17:00;;;;;;;23.70;15.43;;;;;;;11.59;45.09;95044.94;5024616;28;20576;-76
2021/12/25 12:19:38;;;;;;;31.55;21.73;;;;;;;11.69;44.97;95043.78;5010415;28;20087;-76
2021/12/25 12:22:19;;;;;;;23.55;15.77;;;;;;;11.78;44.51;95049.84;5026134;28;20107;-76
2021/12/25 12:27:34;;;;;;;20.98;12.43;;;;;;;11.91;43.99;95047.28;5011176;28;20084;-74
2021/12/25 12:30:00;;;;;;;18.75;12.52;;;;;;;11.91;43.20;95047.28;5026239;28;20021;-75
2021/12/25 12:32:55;;;;;;;19.73;10.93;;;;;;;11.94;43.11;95063.03;5027360;28;20480;-75
2021/12/25 12:35:34;;;;;;;20.25;12.07;;;;;;;11.92;43.38;95051.63;5000424;28;20343;-74
2021/12/25 12:38:42;;;;;;;19.52;11.80;;;;;;;11.91;43.08;95063.41;5019616;28;20041;-74
2021/12/25 12:41:21;;;;;;;18.45;11.75;;;;;;;11.79;43.21;95051.50;4961252;28;20126;-74
2021/12/25 12:44:11;;;;;;;21.25;10.80;;;;;;;11.77;43.79;95064.31;4961641;28;20038;-74
2021/12/25 12:46:51;;;;;;;10.73;5.78;;;;;;;11.69;44.52;95059.88;5011431;28;20044;-74
2021/12/25 12:49:24;;;;;;;8.73;4.60;;;;;;;11.56;45.42;95066.00;5026493;28;20440;-74